sensor_id;sensor_type;location;lat;lon;timestamp;P1;durP1;ratioP1;P2;durP2;ratioP2
5754;SDS011;2902;42.130;24.732;2023-06-14T00:02:24;5.70;;;4.87;;
5754;SDS011;2902;42.130;24.732;2023-06-14T00:04:51;6.07;;;5.77;;
5754;SDS011;2902;42.130;24.732;2023-06-14T00:07:18;5.53;;;5.23;;
5754;SDS011;2902;42.130;24.732;2023-06-14T00:09:46;5.60;;;5.20;;
5754;SDS011;2902;42.130;24.732;2023-06-14T00:12:12;5.17;;;4.87;;
5754;SDS011;2902;42.130;24.732;2023-06-14T00:14:39;5.90;;;5.40;;
5754;SDS011;2902;42.130;24.732;2023-06-14T00:17:06;6.07;;;5.53;;
5754;SDS011;2902;42.130;24.732;2023-06-14T00:19:34;6.17;;;5.57;;
5754;SDS011;2902;42.130;24.732;2023-06-14T00:22:01;7.27;;;5.30;;
5754;SDS011;2902;42.130;24.732;2023-06-14T00:24:28;5.83;;;5.43;;
5754;SDS011;2902;42.130;24.732;2023-06-14T00:26:56;5.63;;;5.23;;
5754;SDS011;2902;42.130;24.732;2023-06-14T00:29:23;6.27;;;5.80;;
5754;SDS011;2902;42.130;24.732;2023-06-14T00:31:49;6.63;;;6.03;;
5754;SDS011;2902;42.130;24.732;2023-06-14T00:34:16;5.83;;;5.43;;
5754;SDS011;2902;42.130;24.732;2023-06-14T00:36:43;10.10;;;5.60;;
5754;SDS011;2902;42.130;24.732;2023-06-14T00:39:09;6.20;;;5.70;;
5754;SDS011;2902;42.130;24.732;2023-06-14T00:41:37;5.53;;;5.00;;
5754;SDS011;2902;42.130;24.732;2023-06-14T00:44:05;6.70;;;6.13;;
5754;SDS011;2902;42.130;24.732;2023-06-14T00:46:32;6.90;;;6.50;;
5754;SDS011;2902;42.130;24.732;2023-06-14T00:48:58;6.03;;;5.63;;
5754;SDS011;2902;42.130;24.732;2023-06-14T00:51:27;5.93;;;5.53;;
5754;SDS011;2902;42.130;24.732;2023-06-14T00:53:54;6.03;;;5.63;;
5754;SDS011;2902;42.130;24.732;2023-06-14T00:56:21;6.30;;;6.00;;
5754;SDS011;2902;42.130;24.732;2023-06-14T00:58:48;5.40;;;5.10;;
5754;SDS011;2902;42.130;24.732;2023-06-14T01:01:17;5.97;;;5.40;;
5754;SDS011;2902;42.130;24.732;2023-06-14T01:03:44;5.80;;;5.50;;
5754;SDS011;2902;42.130;24.732;2023-06-14T01:06:14;5.83;;;5.53;;
5754;SDS011;2902;42.130;24.732;2023-06-14T01:08:55;5.73;;;5.33;;
5754;SDS011;2902;42.130;24.732;2023-06-14T01:11:28;6.60;;;6.10;;
5754;SDS011;2902;42.130;24.732;2023-06-14T01:13:59;6.13;;;5.83;;
5754;SDS011;2902;42.130;24.732;2023-06-14T01:16:29;7.10;;;6.47;;
5754;SDS011;2902;42.130;24.732;2023-06-14T01:18:57;6.07;;;5.67;;
5754;SDS011;2902;42.130;24.732;2023-06-14T01:21:25;6.23;;;5.83;;
5754;SDS011;2902;42.130;24.732;2023-06-14T01:23:54;7.10;;;6.70;;
5754;SDS011;2902;42.130;24.732;2023-06-14T01:26:22;6.53;;;6.13;;
5754;SDS011;2902;42.130;24.732;2023-06-14T01:28:49;7.13;;;6.50;;
5754;SDS011;2902;42.130;24.732;2023-06-14T01:31:18;5.87;;;5.33;;
5754;SDS011;2902;42.130;24.732;2023-06-14T01:33:47;5.93;;;5.43;;
5754;SDS011;2902;42.130;24.732;2023-06-14T01:36:16;6.53;;;6.03;;
5754;SDS011;2902;42.130;24.732;2023-06-14T01:38:44;6.27;;;5.83;;
5754;SDS011;2902;42.130;24.732;2023-06-14T01:41:13;5.90;;;5.40;;
5754;SDS011;2902;42.130;24.732;2023-06-14T01:43:40;5.97;;;5.57;;
5754;SDS011;2902;42.130;24.732;2023-06-14T01:46:08;5.90;;;5.50;;
5754;SDS011;2902;42.130;24.732;2023-06-14T01:48:36;5.97;;;5.20;;
5754;SDS011;2902;42.130;24.732;2023-06-14T01:51:03;5.67;;;5.27;;
5754;SDS011;2902;42.130;24.732;2023-06-14T01:53:30;5.70;;;5.40;;
5754;SDS011;2902;42.130;24.732;2023-06-14T01:55:57;5.57;;;5.17;;
5754;SDS011;2902;42.130;24.732;2023-06-14T01:58:25;6.20;;;5.50;;
5754;SDS011;2902;42.130;24.732;2023-06-14T02:00:52;6.33;;;5.70;;
5754;SDS011;2902;42.130;24.732;2023-06-14T02:03:20;6.13;;;5.73;;
5754;SDS011;2902;42.130;24.732;2023-06-14T02:05:48;6.20;;;5.80;;
5754;SDS011;2902;42.130;24.732;2023-06-14T02:08:15;5.90;;;5.50;;
5754;SDS011;2902;42.130;24.732;2023-06-14T02:10:41;5.70;;;5.37;;
5754;SDS011;2902;42.130;24.732;2023-06-14T02:13:08;5.20;;;4.80;;
5754;SDS011;2902;42.130;24.732;2023-06-14T02:15:36;6.13;;;5.73;;
5754;SDS011;2902;42.130;24.732;2023-06-14T02:18:03;6.77;;;6.27;;
5754;SDS011;2902;42.130;24.732;2023-06-14T02:20:30;5.07;;;4.73;;
5754;SDS011;2902;42.130;24.732;2023-06-14T02:22:57;6.10;;;5.70;;
5754;SDS011;2902;42.130;24.732;2023-06-14T02:25:24;6.50;;;6.10;;
5754;SDS011;2902;42.130;24.732;2023-06-14T02:27:52;5.43;;;5.03;;
5754;SDS011;2902;42.130;24.732;2023-06-14T02:30:20;6.40;;;5.43;;
5754;SDS011;2902;42.130;24.732;2023-06-14T02:32:48;5.83;;;5.33;;
5754;SDS011;2902;42.130;24.732;2023-06-14T02:35:16;5.50;;;5.20;;
5754;SDS011;2902;42.130;24.732;2023-06-14T02:37:42;6.57;;;5.97;;
5754;SDS011;2902;42.130;24.732;2023-06-14T02:40:09;8.73;;;6.70;;
5754;SDS011;2902;42.130;24.732;2023-06-14T02:42:37;7.63;;;6.10;;
5754;SDS011;2902;42.130;24.732;2023-06-14T02:45:04;6.33;;;5.80;;
5754;SDS011;2902;42.130;24.732;2023-06-14T02:47:31;6.73;;;6.03;;
5754;SDS011;2902;42.130;24.732;2023-06-14T02:49:59;6.77;;;5.47;;
5754;SDS011;2902;42.130;24.732;2023-06-14T02:52:26;7.40;;;5.63;;
5754;SDS011;2902;42.130;24.732;2023-06-14T02:54:52;6.23;;;5.67;;
5754;SDS011;2902;42.130;24.732;2023-06-14T02:57:19;7.87;;;5.93;;
5754;SDS011;2902;42.130;24.732;2023-06-14T02:59:46;6.50;;;5.77;;
5754;SDS011;2902;42.130;24.732;2023-06-14T03:02:12;6.70;;;6.10;;
5754;SDS011;2902;42.130;24.732;2023-06-14T03:04:39;7.40;;;6.00;;
5754;SDS011;2902;42.130;24.732;2023-06-14T03:07:09;7.13;;;6.53;;
5754;SDS011;2902;42.130;24.732;2023-06-14T03:09:37;6.37;;;5.97;;
5754;SDS011;2902;42.130;24.732;2023-06-14T03:12:05;10.50;;;5.90;;
5754;SDS011;2902;42.130;24.732;2023-06-14T03:14:34;8.30;;;4.73;;
5754;SDS011;2902;42.130;24.732;2023-06-14T03:17:01;7.40;;;5.40;;
5754;SDS011;2902;42.130;24.732;2023-06-14T03:19:30;5.40;;;4.77;;
5754;SDS011;2902;42.130;24.732;2023-06-14T03:21:57;6.00;;;5.40;;
5754;SDS011;2902;42.130;24.732;2023-06-14T03:24:25;6.30;;;5.80;;
5754;SDS011;2902;42.130;24.732;2023-06-14T03:26:52;5.83;;;5.23;;
5754;SDS011;2902;42.130;24.732;2023-06-14T03:29:19;8.97;;;6.87;;
5754;SDS011;2902;42.130;24.732;2023-06-14T03:31:55;5.60;;;5.30;;
5754;SDS011;2902;42.130;24.732;2023-06-14T03:34:23;6.47;;;5.90;;
5754;SDS011;2902;42.130;24.732;2023-06-14T03:36:50;6.13;;;5.63;;
5754;SDS011;2902;42.130;24.732;2023-06-14T03:39:17;5.70;;;5.30;;
5754;SDS011;2902;42.130;24.732;2023-06-14T03:41:45;7.63;;;5.77;;
5754;SDS011;2902;42.130;24.732;2023-06-14T03:44:13;5.57;;;5.07;;
5754;SDS011;2902;42.130;24.732;2023-06-14T03:46:42;7.70;;;5.70;;
5754;SDS011;2902;42.130;24.732;2023-06-14T03:49:08;6.90;;;5.00;;
5754;SDS011;2902;42.130;24.732;2023-06-14T03:51:36;20.87;;;6.20;;
5754;SDS011;2902;42.130;24.732;2023-06-14T03:54:02;11.73;;;6.17;;
5754;SDS011;2902;42.130;24.732;2023-06-14T03:56:29;12.27;;;5.97;;
5754;SDS011;2902;42.130;24.732;2023-06-14T03:58:57;10.47;;;6.53;;
5754;SDS011;2902;42.130;24.732;2023-06-14T04:01:24;5.57;;;5.00;;
5754;SDS011;2902;42.130;24.732;2023-06-14T04:03:52;6.53;;;5.67;;
5754;SDS011;2902;42.130;24.732;2023-06-14T04:06:19;15.07;;;6.77;;
5754;SDS011;2902;42.130;24.732;2023-06-14T04:08:45;6.93;;;6.37;;
5754;SDS011;2902;42.130;24.732;2023-06-14T04:11:14;8.17;;;7.43;;
5754;SDS011;2902;42.130;24.732;2023-06-14T04:13:41;57.13;;;9.67;;
5754;SDS011;2902;42.130;24.732;2023-06-14T04:16:09;8.17;;;7.40;;
5754;SDS011;2902;42.130;24.732;2023-06-14T04:18:35;9.30;;;7.40;;
5754;SDS011;2902;42.130;24.732;2023-06-14T04:21:02;9.33;;;7.37;;
5754;SDS011;2902;42.130;24.732;2023-06-14T04:23:29;15.73;;;8.37;;
5754;SDS011;2902;42.130;24.732;2023-06-14T04:25:57;27.27;;;9.97;;
5754;SDS011;2902;42.130;24.732;2023-06-14T04:28:27;11.80;;;9.30;;
5754;SDS011;2902;42.130;24.732;2023-06-14T04:30:55;16.40;;;9.33;;
5754;SDS011;2902;42.130;24.732;2023-06-14T04:33:23;20.80;;;9.30;;
5754;SDS011;2902;42.130;24.732;2023-06-14T04:35:50;13.93;;;8.80;;
5754;SDS011;2902;42.130;24.732;2023-06-14T04:38:19;7.10;;;6.60;;
5754;SDS011;2902;42.130;24.732;2023-06-14T04:40:50;12.83;;;6.50;;
5754;SDS011;2902;42.130;24.732;2023-06-14T04:43:18;7.63;;;6.93;;
5754;SDS011;2902;42.130;24.732;2023-06-14T04:45:50;8.53;;;7.80;;
5754;SDS011;2902;42.130;24.732;2023-06-14T04:48:16;11.67;;;6.70;;
5754;SDS011;2902;42.130;24.732;2023-06-14T04:50:46;17.73;;;7.67;;
5754;SDS011;2902;42.130;24.732;2023-06-14T04:53:12;12.40;;;7.80;;
5754;SDS011;2902;42.130;24.732;2023-06-14T04:55:39;9.27;;;6.13;;
5754;SDS011;2902;42.130;24.732;2023-06-14T04:58:09;9.07;;;7.10;;
5754;SDS011;2902;42.130;24.732;2023-06-14T05:00:38;7.03;;;6.40;;
5754;SDS011;2902;42.130;24.732;2023-06-14T05:03:04;12.80;;;7.50;;
5754;SDS011;2902;42.130;24.732;2023-06-14T05:05:31;16.57;;;8.80;;
5754;SDS011;2902;42.130;24.732;2023-06-14T05:08:01;12.80;;;7.67;;
5754;SDS011;2902;42.130;24.732;2023-06-14T05:10:27;15.80;;;7.83;;
5754;SDS011;2902;42.130;24.732;2023-06-14T05:12:54;9.70;;;7.67;;
5754;SDS011;2902;42.130;24.732;2023-06-14T05:15:21;14.43;;;7.67;;
5754;SDS011;2902;42.130;24.732;2023-06-14T05:17:51;9.97;;;7.37;;
5754;SDS011;2902;42.130;24.732;2023-06-14T05:20:20;11.60;;;7.23;;
5754;SDS011;2902;42.130;24.732;2023-06-14T05:22:48;13.37;;;8.73;;
5754;SDS011;2902;42.130;24.732;2023-06-14T05:25:18;17.70;;;10.10;;
5754;SDS011;2902;42.130;24.732;2023-06-14T05:27:45;19.47;;;9.97;;
5754;SDS011;2902;42.130;24.732;2023-06-14T05:30:12;17.47;;;11.80;;
5754;SDS011;2902;42.130;24.732;2023-06-14T05:32:39;17.37;;;13.23;;
5754;SDS011;2902;42.130;24.732;2023-06-14T05:35:07;21.30;;;12.03;;
5754;SDS011;2902;42.130;24.732;2023-06-14T05:37:34;14.10;;;9.90;;
5754;SDS011;2902;42.130;24.732;2023-06-14T05:40:00;11.57;;;10.57;;
5754;SDS011;2902;42.130;24.732;2023-06-14T05:42:30;14.53;;;13.23;;
5754;SDS011;2902;42.130;24.732;2023-06-14T05:44:57;14.73;;;12.77;;
5754;SDS011;2902;42.130;24.732;2023-06-14T05:47:24;13.90;;;12.40;;
5754;SDS011;2902;42.130;24.732;2023-06-14T05:49:51;12.43;;;11.37;;
5754;SDS011;2902;42.130;24.732;2023-06-14T05:52:17;10.90;;;10.13;;
5754;SDS011;2902;42.130;24.732;2023-06-14T05:54:44;12.73;;;11.40;;
5754;SDS011;2902;42.130;24.732;2023-06-14T05:57:11;11.70;;;10.57;;
5754;SDS011;2902;42.130;24.732;2023-06-14T05:59:39;11.77;;;10.57;;
5754;SDS011;2902;42.130;24.732;2023-06-14T06:02:06;13.00;;;11.20;;
5754;SDS011;2902;42.130;24.732;2023-06-14T06:04:32;13.93;;;10.67;;
5754;SDS011;2902;42.130;24.732;2023-06-14T06:07:00;12.60;;;11.30;;
5754;SDS011;2902;42.130;24.732;2023-06-14T06:09:26;13.53;;;11.60;;
5754;SDS011;2902;42.130;24.732;2023-06-14T06:11:53;11.10;;;10.10;;
5754;SDS011;2902;42.130;24.732;2023-06-14T06:14:20;12.50;;;11.63;;
5754;SDS011;2902;42.130;24.732;2023-06-14T06:16:48;9.87;;;9.10;;
5754;SDS011;2902;42.130;24.732;2023-06-14T06:19:15;12.33;;;11.13;;
5754;SDS011;2902;42.130;24.732;2023-06-14T06:21:42;11.50;;;10.50;;
5754;SDS011;2902;42.130;24.732;2023-06-14T06:24:08;18.60;;;12.57;;
5754;SDS011;2902;42.130;24.732;2023-06-14T06:26:35;9.73;;;8.87;;
5754;SDS011;2902;42.130;24.732;2023-06-14T06:29:02;10.30;;;9.30;;
5754;SDS011;2902;42.130;24.732;2023-06-14T06:31:28;21.97;;;11.63;;
5754;SDS011;2902;42.130;24.732;2023-06-14T06:33:56;11.50;;;10.60;;
5754;SDS011;2902;42.130;24.732;2023-06-14T06:36:23;11.83;;;10.17;;
5754;SDS011;2902;42.130;24.732;2023-06-14T06:38:50;14.47;;;11.20;;
5754;SDS011;2902;42.130;24.732;2023-06-14T06:41:18;12.17;;;10.23;;
5754;SDS011;2902;42.130;24.732;2023-06-14T06:43:44;26.63;;;9.90;;
5754;SDS011;2902;42.130;24.732;2023-06-14T06:46:11;14.17;;;10.77;;
5754;SDS011;2902;42.130;24.732;2023-06-14T06:48:38;12.90;;;8.67;;
5754;SDS011;2902;42.130;24.732;2023-06-14T06:51:06;9.73;;;7.60;;
5754;SDS011;2902;42.130;24.732;2023-06-14T06:53:33;31.23;;;10.70;;
5754;SDS011;2902;42.130;24.732;2023-06-14T06:56:00;8.80;;;7.97;;
5754;SDS011;2902;42.130;24.732;2023-06-14T06:58:26;12.70;;;8.00;;
5754;SDS011;2902;42.130;24.732;2023-06-14T07:00:53;9.90;;;8.83;;
5754;SDS011;2902;42.130;24.732;2023-06-14T07:03:20;11.97;;;9.93;;
5754;SDS011;2902;42.130;24.732;2023-06-14T07:05:46;15.57;;;10.70;;
5754;SDS011;2902;42.130;24.732;2023-06-14T07:08:14;9.73;;;8.83;;
5754;SDS011;2902;42.130;24.732;2023-06-14T07:10:41;9.33;;;8.60;;
5754;SDS011;2902;42.130;24.732;2023-06-14T07:13:08;9.93;;;9.30;;
5754;SDS011;2902;42.130;24.732;2023-06-14T07:15:34;10.87;;;9.97;;
5754;SDS011;2902;42.130;24.732;2023-06-14T07:18:01;9.13;;;8.37;;
5754;SDS011;2902;42.130;24.732;2023-06-14T07:20:28;22.40;;;8.57;;
5754;SDS011;2902;42.130;24.732;2023-06-14T07:22:56;9.60;;;8.83;;
5754;SDS011;2902;42.130;24.732;2023-06-14T07:25:24;9.30;;;8.50;;
5754;SDS011;2902;42.130;24.732;2023-06-14T07:27:51;9.63;;;8.17;;
5754;SDS011;2902;42.130;24.732;2023-06-14T07:30:18;9.23;;;8.43;;
5754;SDS011;2902;42.130;24.732;2023-06-14T07:32:44;9.47;;;8.43;;
5754;SDS011;2902;42.130;24.732;2023-06-14T07:35:11;9.67;;;8.77;;
5754;SDS011;2902;42.130;24.732;2023-06-14T07:37:38;9.63;;;7.67;;
5754;SDS011;2902;42.130;24.732;2023-06-14T07:40:05;8.53;;;7.83;;
5754;SDS011;2902;42.130;24.732;2023-06-14T07:42:34;10.40;;;8.23;;
5754;SDS011;2902;42.130;24.732;2023-06-14T07:45:01;9.80;;;8.90;;
5754;SDS011;2902;42.130;24.732;2023-06-14T07:47:28;9.50;;;8.70;;
5754;SDS011;2902;42.130;24.732;2023-06-14T07:49:55;9.43;;;8.00;;
5754;SDS011;2902;42.130;24.732;2023-06-14T07:52:22;10.93;;;10.00;;
5754;SDS011;2902;42.130;24.732;2023-06-14T07:54:48;8.77;;;7.97;;
5754;SDS011;2902;42.130;24.732;2023-06-14T07:57:15;8.40;;;7.83;;
5754;SDS011;2902;42.130;24.732;2023-06-14T07:59:43;10.10;;;9.33;;
5754;SDS011;2902;42.130;24.732;2023-06-14T08:02:10;10.47;;;9.27;;
5754;SDS011;2902;42.130;24.732;2023-06-14T08:04:37;14.83;;;8.57;;
5754;SDS011;2902;42.130;24.732;2023-06-14T08:07:03;7.80;;;7.20;;
5754;SDS011;2902;42.130;24.732;2023-06-14T08:09:30;10.63;;;9.70;;
5754;SDS011;2902;42.130;24.732;2023-06-14T08:11:57;10.47;;;9.47;;
5754;SDS011;2902;42.130;24.732;2023-06-14T08:14:23;9.97;;;9.23;;
5754;SDS011;2902;42.130;24.732;2023-06-14T08:16:51;15.57;;;10.30;;
5754;SDS011;2902;42.130;24.732;2023-06-14T08:19:18;11.43;;;10.27;;
5754;SDS011;2902;42.130;24.732;2023-06-14T08:21:45;7.60;;;7.10;;
5754;SDS011;2902;42.130;24.732;2023-06-14T08:24:12;10.70;;;8.30;;
5754;SDS011;2902;42.130;24.732;2023-06-14T08:26:39;10.33;;;8.70;;
5754;SDS011;2902;42.130;24.732;2023-06-14T08:29:06;9.57;;;8.43;;
5754;SDS011;2902;42.130;24.732;2023-06-14T08:31:33;13.63;;;9.47;;
5754;SDS011;2902;42.130;24.732;2023-06-14T08:34:01;13.17;;;10.13;;
5754;SDS011;2902;42.130;24.732;2023-06-14T08:36:28;13.30;;;11.07;;
5754;SDS011;2902;42.130;24.732;2023-06-14T08:38:54;11.33;;;10.23;;
5754;SDS011;2902;42.130;24.732;2023-06-14T08:41:22;10.97;;;9.83;;
5754;SDS011;2902;42.130;24.732;2023-06-14T08:43:49;16.43;;;10.47;;
5754;SDS011;2902;42.130;24.732;2023-06-14T08:46:17;9.70;;;8.77;;
5754;SDS011;2902;42.130;24.732;2023-06-14T08:48:47;15.10;;;10.10;;
5754;SDS011;2902;42.130;24.732;2023-06-14T08:51:19;8.70;;;7.90;;
5754;SDS011;2902;42.130;24.732;2023-06-14T08:53:49;10.23;;;9.27;;
5754;SDS011;2902;42.130;24.732;2023-06-14T08:56:19;10.77;;;9.87;;
5754;SDS011;2902;42.130;24.732;2023-06-14T08:58:47;8.93;;;7.47;;
5754;SDS011;2902;42.130;24.732;2023-06-14T09:01:15;14.27;;;9.53;;
5754;SDS011;2902;42.130;24.732;2023-06-14T09:03:42;9.37;;;8.70;;
5754;SDS011;2902;42.130;24.732;2023-06-14T09:06:10;11.57;;;10.27;;
5754;SDS011;2902;42.130;24.732;2023-06-14T09:08:41;10.33;;;9.50;;
5754;SDS011;2902;42.130;24.732;2023-06-14T09:11:09;9.73;;;8.83;;
5754;SDS011;2902;42.130;24.732;2023-06-14T09:13:37;9.43;;;8.83;;
5754;SDS011;2902;42.130;24.732;2023-06-14T09:16:04;12.70;;;9.03;;
5754;SDS011;2902;42.130;24.732;2023-06-14T09:18:35;8.97;;;8.17;;
5754;SDS011;2902;42.130;24.732;2023-06-14T09:21:02;9.63;;;8.63;;
5754;SDS011;2902;42.130;24.732;2023-06-14T09:23:29;32.10;;;17.43;;
5754;SDS011;2902;42.130;24.732;2023-06-14T09:25:57;14.50;;;13.00;;
5754;SDS011;2902;42.130;24.732;2023-06-14T09:28:26;49.07;;;21.83;;
5754;SDS011;2902;42.130;24.732;2023-06-14T09:30:54;10.27;;;9.43;;
5754;SDS011;2902;42.130;24.732;2023-06-14T09:33:21;13.63;;;10.80;;
5754;SDS011;2902;42.130;24.732;2023-06-14T09:35:50;30.53;;;18.23;;
5754;SDS011;2902;42.130;24.732;2023-06-14T09:38:18;16.90;;;9.10;;
5754;SDS011;2902;42.130;24.732;2023-06-14T09:40:45;9.87;;;9.10;;
5754;SDS011;2902;42.130;24.732;2023-06-14T09:43:13;9.60;;;8.80;;
5754;SDS011;2902;42.130;24.732;2023-06-14T09:45:40;9.77;;;8.90;;
5754;SDS011;2902;42.130;24.732;2023-06-14T09:48:11;11.03;;;9.80;;
5754;SDS011;2902;42.130;24.732;2023-06-14T09:50:42;11.33;;;9.90;;
5754;SDS011;2902;42.130;24.732;2023-06-14T09:53:11;9.33;;;8.40;;
5754;SDS011;2902;42.130;24.732;2023-06-14T09:55:40;9.47;;;8.63;;
5754;SDS011;2902;42.130;24.732;2023-06-14T09:58:07;10.57;;;9.43;;
5754;SDS011;2902;42.130;24.732;2023-06-14T10:00:37;14.20;;;10.03;;
5754;SDS011;2902;42.130;24.732;2023-06-14T10:03:06;14.40;;;11.50;;
5754;SDS011;2902;42.130;24.732;2023-06-14T10:05:38;12.60;;;11.43;;
5754;SDS011;2902;42.130;24.732;2023-06-14T10:08:07;12.87;;;11.87;;
5754;SDS011;2902;42.130;24.732;2023-06-14T10:10:38;13.87;;;12.63;;
5754;SDS011;2902;42.130;24.732;2023-06-14T10:13:05;15.03;;;11.63;;
5754;SDS011;2902;42.130;24.732;2023-06-14T10:15:34;12.93;;;11.83;;
5754;SDS011;2902;42.130;24.732;2023-06-14T10:18:06;12.17;;;11.07;;
5754;SDS011;2902;42.130;24.732;2023-06-14T10:20:41;12.53;;;11.40;;
5754;SDS011;2902;42.130;24.732;2023-06-14T10:23:17;12.57;;;10.90;;
5754;SDS011;2902;42.130;24.732;2023-06-14T10:25:49;12.07;;;10.83;;
5754;SDS011;2902;42.130;24.732;2023-06-14T10:28:17;11.63;;;10.73;;
5754;SDS011;2902;42.130;24.732;2023-06-14T10:33:41;12.03;;;9.87;;
5754;SDS011;2902;42.130;24.732;2023-06-14T10:36:25;12.80;;;11.47;;
5754;SDS011;2902;42.130;24.732;2023-06-14T10:38:57;13.40;;;11.03;;
5754;SDS011;2902;42.130;24.732;2023-06-14T10:41:25;10.63;;;9.93;;
5754;SDS011;2902;42.130;24.732;2023-06-14T10:46:54;15.13;;;10.70;;
5754;SDS011;2902;42.130;24.732;2023-06-14T10:49:36;13.27;;;10.07;;
5754;SDS011;2902;42.130;24.732;2023-06-14T10:52:07;11.37;;;10.57;;
5754;SDS011;2902;42.130;24.732;2023-06-14T10:54:37;12.30;;;10.30;;
5754;SDS011;2902;42.130;24.732;2023-06-14T10:57:03;11.27;;;10.47;;
5754;SDS011;2902;42.130;24.732;2023-06-14T10:59:33;12.43;;;9.50;;
5754;SDS011;2902;42.130;24.732;2023-06-14T11:02:06;9.83;;;9.03;;
5754;SDS011;2902;42.130;24.732;2023-06-14T11:04:49;9.53;;;8.77;;
5754;SDS011;2902;42.130;24.732;2023-06-14T11:07:25;9.07;;;8.23;;
5754;SDS011;2902;42.130;24.732;2023-06-14T11:10:10;9.90;;;9.30;;
5754;SDS011;2902;42.130;24.732;2023-06-14T11:12:50;15.53;;;9.17;;
5754;SDS011;2902;42.130;24.732;2023-06-14T11:15:20;8.80;;;8.30;;
5754;SDS011;2902;42.130;24.732;2023-06-14T11:17:55;9.97;;;8.90;;
5754;SDS011;2902;42.130;24.732;2023-06-14T11:20:24;9.63;;;9.03;;
5754;SDS011;2902;42.130;24.732;2023-06-14T11:22:52;9.50;;;9.00;;
5754;SDS011;2902;42.130;24.732;2023-06-14T11:25:19;9.60;;;8.87;;
5754;SDS011;2902;42.130;24.732;2023-06-14T11:27:48;9.83;;;8.90;;
5754;SDS011;2902;42.130;24.732;2023-06-14T11:30:15;10.53;;;9.73;;
5754;SDS011;2902;42.130;24.732;2023-06-14T11:32:45;10.77;;;9.57;;
5754;SDS011;2902;42.130;24.732;2023-06-14T11:35:14;10.37;;;9.67;;
5754;SDS011;2902;42.130;24.732;2023-06-14T11:37:42;9.30;;;8.77;;
5754;SDS011;2902;42.130;24.732;2023-06-14T11:40:10;9.90;;;8.83;;
5754;SDS011;2902;42.130;24.732;2023-06-14T11:42:38;11.10;;;10.03;;
5754;SDS011;2902;42.130;24.732;2023-06-14T11:45:07;11.23;;;10.03;;
5754;SDS011;2902;42.130;24.732;2023-06-14T11:47:35;11.30;;;10.27;;
5754;SDS011;2902;42.130;24.732;2023-06-14T11:50:03;10.97;;;10.13;;
5754;SDS011;2902;42.130;24.732;2023-06-14T11:52:32;21.70;;;11.27;;
5754;SDS011;2902;42.130;24.732;2023-06-14T11:54:59;11.53;;;10.60;;
5754;SDS011;2902;42.130;24.732;2023-06-14T11:57:29;10.53;;;9.10;;
5754;SDS011;2902;42.130;24.732;2023-06-14T11:59:56;13.63;;;10.17;;
5754;SDS011;2902;42.130;24.732;2023-06-14T12:02:23;10.13;;;9.30;;
5754;SDS011;2902;42.130;24.732;2023-06-14T12:04:52;10.60;;;9.80;;
5754;SDS011;2902;42.130;24.732;2023-06-14T12:07:19;11.20;;;10.10;;
5754;SDS011;2902;42.130;24.732;2023-06-14T12:10:05;11.20;;;10.33;;
5754;SDS011;2902;42.130;24.732;2023-06-14T12:12:35;11.87;;;10.87;;
5754;SDS011;2902;42.130;24.732;2023-06-14T12:15:03;11.80;;;10.77;;
5754;SDS011;2902;42.130;24.732;2023-06-14T12:17:34;11.67;;;10.80;;
5754;SDS011;2902;42.130;24.732;2023-06-14T12:20:07;11.77;;;10.77;;
5754;SDS011;2902;42.130;24.732;2023-06-14T12:22:36;12.03;;;11.33;;
5754;SDS011;2902;42.130;24.732;2023-06-14T12:25:04;10.53;;;9.80;;
5754;SDS011;2902;42.130;24.732;2023-06-14T12:27:31;11.53;;;10.63;;
5754;SDS011;2902;42.130;24.732;2023-06-14T12:29:58;10.23;;;9.73;;
5754;SDS011;2902;42.130;24.732;2023-06-14T12:32:26;11.80;;;10.80;;
5754;SDS011;2902;42.130;24.732;2023-06-14T12:34:53;11.97;;;11.03;;
5754;SDS011;2902;42.130;24.732;2023-06-14T12:37:20;11.47;;;10.67;;
5754;SDS011;2902;42.130;24.732;2023-06-14T12:39:46;11.63;;;10.93;;
5754;SDS011;2902;42.130;24.732;2023-06-14T12:42:14;11.50;;;10.70;;
5754;SDS011;2902;42.130;24.732;2023-06-14T12:44:41;11.10;;;10.17;;
5754;SDS011;2902;42.130;24.732;2023-06-14T12:47:08;11.90;;;10.90;;
5754;SDS011;2902;42.130;24.732;2023-06-14T12:49:34;12.40;;;11.27;;
5754;SDS011;2902;42.130;24.732;2023-06-14T12:52:01;11.50;;;10.43;;
5754;SDS011;2902;42.130;24.732;2023-06-14T12:54:28;11.50;;;10.57;;
5754;SDS011;2902;42.130;24.732;2023-06-14T12:56:54;13.23;;;10.20;;
5754;SDS011;2902;42.130;24.732;2023-06-14T12:59:23;10.47;;;9.57;;
5754;SDS011;2902;42.130;24.732;2023-06-14T13:01:49;10.93;;;10.20;;
5754;SDS011;2902;42.130;24.732;2023-06-14T13:04:18;12.10;;;10.70;;
5754;SDS011;2902;42.130;24.732;2023-06-14T13:06:45;11.00;;;9.97;;
5754;SDS011;2902;42.130;24.732;2023-06-14T13:09:12;10.87;;;9.93;;
5754;SDS011;2902;42.130;24.732;2023-06-14T13:11:40;9.97;;;9.30;;
5754;SDS011;2902;42.130;24.732;2023-06-14T13:14:10;10.20;;;9.50;;
5754;SDS011;2902;42.130;24.732;2023-06-14T13:16:39;10.87;;;9.90;;
5754;SDS011;2902;42.130;24.732;2023-06-14T13:19:05;10.57;;;9.77;;
5754;SDS011;2902;42.130;24.732;2023-06-14T13:21:32;10.37;;;9.53;;
5754;SDS011;2902;42.130;24.732;2023-06-14T13:23:59;10.50;;;9.83;;
5754;SDS011;2902;42.130;24.732;2023-06-14T13:26:25;10.53;;;9.83;;
5754;SDS011;2902;42.130;24.732;2023-06-14T13:28:52;10.83;;;10.13;;
5754;SDS011;2902;42.130;24.732;2023-06-14T13:31:19;11.10;;;10.10;;
5754;SDS011;2902;42.130;24.732;2023-06-14T13:33:47;10.23;;;9.43;;
5754;SDS011;2902;42.130;24.732;2023-06-14T13:36:14;10.53;;;9.77;;
5754;SDS011;2902;42.130;24.732;2023-06-14T13:38:41;10.50;;;9.87;;
5754;SDS011;2902;42.130;24.732;2023-06-14T13:41:07;10.97;;;10.17;;
5754;SDS011;2902;42.130;24.732;2023-06-14T13:43:34;10.80;;;9.90;;
5754;SDS011;2902;42.130;24.732;2023-06-14T13:46:01;10.47;;;9.87;;
5754;SDS011;2902;42.130;24.732;2023-06-14T13:48:28;10.80;;;10.20;;
5754;SDS011;2902;42.130;24.732;2023-06-14T13:50:56;10.87;;;10.07;;
5754;SDS011;2902;42.130;24.732;2023-06-14T13:53:23;11.20;;;10.07;;
5754;SDS011;2902;42.130;24.732;2023-06-14T13:55:49;10.47;;;9.63;;
5754;SDS011;2902;42.130;24.732;2023-06-14T13:58:17;9.50;;;8.70;;
5754;SDS011;2902;42.130;24.732;2023-06-14T14:00:44;9.53;;;9.03;;
5754;SDS011;2902;42.130;24.732;2023-06-14T14:03:11;11.60;;;9.47;;
5754;SDS011;2902;42.130;24.732;2023-06-14T14:05:37;10.57;;;9.77;;
5754;SDS011;2902;42.130;24.732;2023-06-14T14:08:05;9.57;;;8.83;;
5754;SDS011;2902;42.130;24.732;2023-06-14T14:10:32;9.93;;;9.03;;
5754;SDS011;2902;42.130;24.732;2023-06-14T14:12:59;8.23;;;7.57;;
5754;SDS011;2902;42.130;24.732;2023-06-14T14:15:26;7.70;;;7.10;;
5754;SDS011;2902;42.130;24.732;2023-06-14T14:17:53;7.60;;;7.20;;
5754;SDS011;2902;42.130;24.732;2023-06-14T14:20:22;7.67;;;7.10;;
5754;SDS011;2902;42.130;24.732;2023-06-14T14:22:49;6.93;;;6.53;;
5754;SDS011;2902;42.130;24.732;2023-06-14T14:25:17;7.50;;;7.00;;
5754;SDS011;2902;42.130;24.732;2023-06-14T14:27:44;7.00;;;6.60;;
5754;SDS011;2902;42.130;24.732;2023-06-14T14:30:11;7.60;;;6.80;;
5754;SDS011;2902;42.130;24.732;2023-06-14T14:32:39;6.37;;;5.97;;
5754;SDS011;2902;42.130;24.732;2023-06-14T14:35:06;6.03;;;5.47;;
5754;SDS011;2902;42.130;24.732;2023-06-14T14:37:33;5.97;;;5.57;;
5754;SDS011;2902;42.130;24.732;2023-06-14T14:40:00;6.37;;;5.83;;
5754;SDS011;2902;42.130;24.732;2023-06-14T14:42:29;6.40;;;5.73;;
5754;SDS011;2902;42.130;24.732;2023-06-14T14:44:55;5.63;;;5.13;;
5754;SDS011;2902;42.130;24.732;2023-06-14T14:47:22;5.23;;;4.93;;
5754;SDS011;2902;42.130;24.732;2023-06-14T14:49:49;6.17;;;5.67;;
5754;SDS011;2902;42.130;24.732;2023-06-14T14:52:16;5.67;;;5.27;;
5754;SDS011;2902;42.130;24.732;2023-06-14T14:54:42;5.60;;;5.10;;
5754;SDS011;2902;42.130;24.732;2023-06-14T14:57:09;5.60;;;5.03;;
5754;SDS011;2902;42.130;24.732;2023-06-14T14:59:38;5.07;;;4.77;;
5754;SDS011;2902;42.130;24.732;2023-06-14T15:02:05;4.03;;;3.93;;